sensor_id;sensor_type;location;lat;lon;timestamp;pressure;altitude;pressure_sealevel;temperature;humidity
12203;BME280;6164;42.178;24.622;2023-02-10T00:02:16;101754.44;;;-3.98;83.89
12203;BME280;6164;42.178;24.622;2023-02-10T00:04:42;101757.88;;;-3.97;83.82
12203;BME280;6164;42.178;24.622;2023-02-10T00:07:09;101757.97;;;-4.02;83.82
12203;BME280;6164;42.178;24.622;2023-02-10T00:09:35;101757.97;;;-4.04;84.28
12203;BME280;6164;42.178;24.622;2023-02-10T00:12:02;101767.44;;;-4.04;84.37
12203;BME280;6164;42.178;24.622;2023-02-10T00:14:29;101780.38;;;-4.06;83.72
12203;BME280;6164;42.178;24.622;2023-02-10T00:16:57;101772.72;;;-4.12;83.70
12203;BME280;6164;42.178;24.622;2023-02-10T00:19:24;101771.88;;;-4.12;84.02
12203;BME280;6164;42.178;24.622;2023-02-10T00:21:51;101784.78;;;-4.12;85.17
12203;BME280;6164;42.178;24.622;2023-02-10T00:24:18;101786.47;;;-4.11;85.80
12203;BME280;6164;42.178;24.622;2023-02-10T00:26:45;101782.16;;;-4.11;85.71
12203;BME280;6164;42.178;24.622;2023-02-10T00:29:11;101791.56;;;-4.08;86.08
12203;BME280;6164;42.178;24.622;2023-02-10T00:31:38;101795.91;;;-4.09;85.77
12203;BME280;6164;42.178;24.622;2023-02-10T00:34:09;101798.44;;;-4.07;85.66
12203;BME280;6164;42.178;24.622;2023-02-10T00:36:36;101804.50;;;-4.10;84.84
12203;BME280;6164;42.178;24.622;2023-02-10T00:39:03;101803.69;;;-4.13;84.39
12203;BME280;6164;42.178;24.622;2023-02-10T00:41:29;101803.06;;;-4.27;84.38
12203;BME280;6164;42.178;24.622;2023-02-10T00:43:56;101804.75;;;-4.28;84.69
12203;BME280;6164;42.178;24.622;2023-02-10T00:46:22;101802.25;;;-4.32;84.24
12203;BME280;6164;42.178;24.622;2023-02-10T00:48:49;101805.72;;;-4.35;84.40
12203;BME280;6164;42.178;24.622;2023-02-10T00:51:17;101807.50;;;-4.40;85.67
12203;BME280;6164;42.178;24.622;2023-02-10T00:53:44;101804.16;;;-4.43;86.07
12203;BME280;6164;42.178;24.622;2023-02-10T00:56:10;101801.63;;;-4.49;85.83
12203;BME280;6164;42.178;24.622;2023-02-10T00:58:37;101806.84;;;-4.52;87.02
12203;BME280;6164;42.178;24.622;2023-02-10T01:01:04;101798.22;;;-4.51;87.21
12203;BME280;6164;42.178;24.622;2023-02-10T01:03:30;101799.06;;;-4.51;87.92
12203;BME280;6164;42.178;24.622;2023-02-10T01:05:57;101804.25;;;-4.52;87.70
12203;BME280;6164;42.178;24.622;2023-02-10T01:08:25;101800.81;;;-4.53;87.16
12203;BME280;6164;42.178;24.622;2023-02-10T01:10:57;101798.22;;;-4.50;87.20
12203;BME280;6164;42.178;24.622;2023-02-10T01:13:23;101798.22;;;-4.51;87.30
12203;BME280;6164;42.178;24.622;2023-02-10T01:15:50;101799.06;;;-4.49;87.81
12203;BME280;6164;42.178;24.622;2023-02-10T01:18:16;101799.97;;;-4.53;88.53
12203;BME280;6164;42.178;24.622;2023-02-10T01:20:42;101794.19;;;-4.70;88.27
12203;BME280;6164;42.178;24.622;2023-02-10T01:23:09;101791.06;;;-4.95;88.32
12203;BME280;6164;42.178;24.622;2023-02-10T01:25:38;101788.56;;;-5.04;90.02
12203;BME280;6164;42.178;24.622;2023-02-10T01:28:05;101788.88;;;-5.29;91.70
12203;BME280;6164;42.178;24.622;2023-02-10T01:30:31;101788.88;;;-5.31;93.00
12203;BME280;6164;42.178;24.622;2023-02-10T01:32:58;101797.47;;;-5.29;93.59
12203;BME280;6164;42.178;24.622;2023-02-10T01:35:25;101788.91;;;-5.32;94.10
12203;BME280;6164;42.178;24.622;2023-02-10T01:37:51;101793.25;;;-5.38;94.33
12203;BME280;6164;42.178;24.622;2023-02-10T01:40:19;101795.00;;;-5.41;94.07
12203;BME280;6164;42.178;24.622;2023-02-10T01:42:47;101795.00;;;-5.41;93.58
12203;BME280;6164;42.178;24.622;2023-02-10T01:45:16;101789.81;;;-5.38;93.42
12203;BME280;6164;42.178;24.622;2023-02-10T01:47:43;101784.69;;;-5.40;93.84
12203;BME280;6164;42.178;24.622;2023-02-10T01:50:10;101787.19;;;-5.35;93.25
12203;BME280;6164;42.178;24.622;2023-02-10T01:52:37;101784.78;;;-5.50;93.70
12203;BME280;6164;42.178;24.622;2023-02-10T01:55:05;101784.06;;;-5.63;92.85
12203;BME280;6164;42.178;24.622;2023-02-10T01:57:32;101781.63;;;-5.78;93.10
12203;BME280;6164;42.178;24.622;2023-02-10T02:00:01;101782.69;;;-5.98;93.68
12203;BME280;6164;42.178;24.622;2023-02-10T02:02:28;101783.44;;;-5.86;94.14
12203;BME280;6164;42.178;24.622;2023-02-10T02:04:58;101779.31;;;-6.03;94.01
12203;BME280;6164;42.178;24.622;2023-02-10T02:07:25;101778.66;;;-6.29;94.35
12203;BME280;6164;42.178;24.622;2023-02-10T02:09:53;101780.34;;;-6.31;95.15
12203;BME280;6164;42.178;24.622;2023-02-10T02:12:21;101770.13;;;-6.40;96.18
12203;BME280;6164;42.178;24.622;2023-02-10T02:14:53;101772.72;;;-6.45;97.47
12203;BME280;6164;42.178;24.622;2023-02-10T02:17:25;101769.22;;;-6.30;98.00
12203;BME280;6164;42.178;24.622;2023-02-10T02:23:07;101766.63;;;-6.29;98.25
12203;BME280;6164;42.178;24.622;2023-02-10T02:25:41;101752.91;;;-6.25;98.37
12203;BME280;6164;42.178;24.622;2023-02-10T02:28:20;101758.84;;;-6.18;98.12
12203;BME280;6164;42.178;24.622;2023-02-10T02:30:55;101760.53;;;-6.17;97.83
12203;BME280;6164;42.178;24.622;2023-02-10T02:33:31;101757.13;;;-6.15;98.15
12203;BME280;6164;42.178;24.622;2023-02-10T02:36:00;101763.97;;;-6.15;97.73
12203;BME280;6164;42.178;24.622;2023-02-10T02:38:29;101757.97;;;-6.13;97.29
12203;BME280;6164;42.178;24.622;2023-02-10T02:40:55;101750.28;;;-6.20;97.25
12203;BME280;6164;42.178;24.622;2023-02-10T02:43:22;101753.75;;;-6.24;98.28
12203;BME280;6164;42.178;24.622;2023-02-10T02:45:50;101752.13;;;-6.37;99.50
12203;BME280;6164;42.178;24.622;2023-02-10T02:48:22;101745.34;;;-6.46;100.00
12203;BME280;6164;42.178;24.622;2023-02-10T02:50:54;101754.03;;;-6.69;100.00
12203;BME280;6164;42.178;24.622;2023-02-10T02:53:26;101756.69;;;-6.85;100.00
12203;BME280;6164;42.178;24.622;2023-02-10T02:55:58;101747.31;;;-6.96;100.00
12203;BME280;6164;42.178;24.622;2023-02-10T02:58:29;101748.25;;;-7.14;100.00
12203;BME280;6164;42.178;24.622;2023-02-10T03:00:58;101751.69;;;-7.19;100.00
12203;BME280;6164;42.178;24.622;2023-02-10T03:03:30;101752.56;;;-7.17;100.00
12203;BME280;6164;42.178;24.622;2023-02-10T03:05:59;101745.69;;;-7.12;100.00
12203;BME280;6164;42.178;24.622;2023-02-10T03:08:26;101732.81;;;-7.08;100.00
12203;BME280;6164;42.178;24.622;2023-02-10T03:10:53;101734.56;;;-7.07;100.00
12203;BME280;6164;42.178;24.622;2023-02-10T03:13:19;101737.91;;;-6.93;100.00
12203;BME280;6164;42.178;24.622;2023-02-10T03:15:46;101737.84;;;-6.85;100.00
12203;BME280;6164;42.178;24.622;2023-02-10T03:18:12;101748.06;;;-6.74;100.00
12203;BME280;6164;42.178;24.622;2023-02-10T03:20:39;101747.19;;;-6.67;100.00
12203;BME280;6164;42.178;24.622;2023-02-10T03:23:07;101754.00;;;-6.65;100.00
12203;BME280;6164;42.178;24.622;2023-02-10T03:25:33;101750.59;;;-6.70;100.00
12203;BME280;6164;42.178;24.622;2023-02-10T03:28:00;101747.25;;;-6.80;100.00
12203;BME280;6164;42.178;24.622;2023-02-10T03:30:26;101741.31;;;-6.89;100.00
12203;BME280;6164;42.178;24.622;2023-02-10T03:32:53;101754.16;;;-6.92;100.00
12203;BME280;6164;42.178;24.622;2023-02-10T03:35:20;101750.78;;;-7.05;100.00
12203;BME280;6164;42.178;24.622;2023-02-10T03:37:47;101747.38;;;-7.08;100.00
12203;BME280;6164;42.178;24.622;2023-02-10T03:40:14;101743.97;;;-7.16;100.00
12203;BME280;6164;42.178;24.622;2023-02-10T03:42:41;101731.19;;;-7.25;100.00
12203;BME280;6164;42.178;24.622;2023-02-10T03:45:08;101728.63;;;-7.22;100.00
12203;BME280;6164;42.178;24.622;2023-02-10T03:47:34;101732.91;;;-7.29;100.00
12203;BME280;6164;42.178;24.622;2023-02-10T03:50:01;101733.75;;;-7.31;100.00
12203;BME280;6164;42.178;24.622;2023-02-10T03:52:28;101733.78;;;-7.28;100.00
12203;BME280;6164;42.178;24.622;2023-02-10T03:54:54;101726.06;;;-7.31;100.00
12203;BME280;6164;42.178;24.622;2023-02-10T03:57:22;101727.78;;;-7.36;100.00
12203;BME280;6164;42.178;24.622;2023-02-10T03:59:48;101732.97;;;-7.48;100.00
12203;BME280;6164;42.178;24.622;2023-02-10T04:02:15;101735.59;;;-7.65;100.00
12203;BME280;6164;42.178;24.622;2023-02-10T04:04:41;101737.28;;;-7.65;100.00
12203;BME280;6164;42.178;24.622;2023-02-10T04:07:08;101729.63;;;-7.71;100.00
12203;BME280;6164;42.178;24.622;2023-02-10T04:09:34;101735.63;;;-7.83;100.00
12203;BME280;6164;42.178;24.622;2023-02-10T04:12:01;101732.19;;;-7.88;100.00
12203;BME280;6164;42.178;24.622;2023-02-10T04:14:29;101731.34;;;-7.85;100.00
12203;BME280;6164;42.178;24.622;2023-02-10T04:16:55;101734.72;;;-7.77;100.00
12203;BME280;6164;42.178;24.622;2023-02-10T04:19:22;101735.59;;;-7.75;100.00
12203;BME280;6164;42.178;24.622;2023-02-10T04:21:48;101731.34;;;-7.76;100.00
12203;BME280;6164;42.178;24.622;2023-02-10T04:24:15;101727.06;;;-7.83;100.00
12203;BME280;6164;42.178;24.622;2023-02-10T04:26:41;101732.19;;;-7.82;100.00
12203;BME280;6164;42.178;24.622;2023-02-10T04:29:07;101738.16;;;-7.71;100.00
12203;BME280;6164;42.178;24.622;2023-02-10T04:31:35;101735.59;;;-7.65;100.00
12203;BME280;6164;42.178;24.622;2023-02-10T04:34:02;101731.31;;;-7.63;100.00
12203;BME280;6164;42.178;24.622;2023-02-10T04:36:28;101734.72;;;-7.62;100.00
12203;BME280;6164;42.178;24.622;2023-02-10T04:38:55;101728.72;;;-7.66;100.00
12203;BME280;6164;42.178;24.622;2023-02-10T04:41:21;101730.44;;;-7.59;100.00
12203;BME280;6164;42.178;24.622;2023-02-10T04:43:48;101727.03;;;-7.64;100.00
12203;BME280;6164;42.178;24.622;2023-02-10T04:46:14;101730.44;;;-7.60;100.00
12203;BME280;6164;42.178;24.622;2023-02-10T04:48:42;101734.72;;;-7.67;100.00
12203;BME280;6164;42.178;24.622;2023-02-10T04:51:09;101736.41;;;-7.55;100.00
12203;BME280;6164;42.178;24.622;2023-02-10T04:53:36;101738.97;;;-7.54;100.00
12203;BME280;6164;42.178;24.622;2023-02-10T04:56:02;101739.84;;;-7.67;100.00
12203;BME280;6164;42.178;24.622;2023-02-10T04:58:29;101736.47;;;-7.82;100.00
12203;BME280;6164;42.178;24.622;2023-02-10T05:00:56;101735.59;;;-7.74;100.00
12203;BME280;6164;42.178;24.622;2023-02-10T05:03:23;101738.16;;;-7.75;100.00
12203;BME280;6164;42.178;24.622;2023-02-10T05:05:51;101740.75;;;-7.84;100.00
12203;BME280;6164;42.178;24.622;2023-02-10T05:08:17;101745.88;;;-7.71;100.00
12203;BME280;6164;42.178;24.622;2023-02-10T05:10:46;101745.00;;;-7.79;100.00
12203;BME280;6164;42.178;24.622;2023-02-10T05:13:12;101747.56;;;-7.70;100.00
12203;BME280;6164;42.178;24.622;2023-02-10T05:15:39;101745.84;;;-7.80;100.00
12203;BME280;6164;42.178;24.622;2023-02-10T05:18:05;101743.31;;;-7.81;100.00
12203;BME280;6164;42.178;24.622;2023-02-10T05:20:32;101744.16;;;-7.79;100.00
12203;BME280;6164;42.178;24.622;2023-02-10T05:23:00;101749.28;;;-7.76;100.00
12203;BME280;6164;42.178;24.622;2023-02-10T05:25:26;101745.00;;;-7.73;100.00
12203;BME280;6164;42.178;24.622;2023-02-10T05:27:52;101745.00;;;-7.74;100.00
12203;BME280;6164;42.178;24.622;2023-02-10T05:30:19;101741.56;;;-7.70;100.00
12203;BME280;6164;42.178;24.622;2023-02-10T05:32:46;101746.69;;;-7.70;100.00
12203;BME280;6164;42.178;24.622;2023-02-10T05:35:12;101752.69;;;-7.58;100.00
12203;BME280;6164;42.178;24.622;2023-02-10T05:37:39;101750.09;;;-7.64;100.00
12203;BME280;6164;42.178;24.622;2023-02-10T05:40:07;101753.53;;;-7.60;100.00
12203;BME280;6164;42.178;24.622;2023-02-10T05:42:33;101753.50;;;-7.56;100.00
12203;BME280;6164;42.178;24.622;2023-02-10T05:45:00;101761.19;;;-7.47;100.00
12203;BME280;6164;42.178;24.622;2023-02-10T05:47:26;101762.91;;;-7.49;100.00
12203;BME280;6164;42.178;24.622;2023-02-10T05:49:53;101763.75;;;-7.54;100.00
12203;BME280;6164;42.178;24.622;2023-02-10T05:52:19;101769.75;;;-7.51;100.00
12203;BME280;6164;42.178;24.622;2023-02-10T05:54:46;101768.88;;;-7.44;100.00
12203;BME280;6164;42.178;24.622;2023-02-10T05:57:14;101767.16;;;-7.39;100.00
12203;BME280;6164;42.178;24.622;2023-02-10T05:59:40;101767.13;;;-7.25;100.00
12203;BME280;6164;42.178;24.622;2023-02-10T06:02:07;101761.94;;;-7.13;100.00
12203;BME280;6164;42.178;24.622;2023-02-10T06:04:34;101777.31;;;-7.03;100.00
12203;BME280;6164;42.178;24.622;2023-02-10T06:07:00;101777.28;;;-7.01;100.00
12203;BME280;6164;42.178;24.622;2023-02-10T06:09:27;101774.75;;;-7.04;100.00
12203;BME280;6164;42.178;24.622;2023-02-10T06:11:53;101773.00;;;-6.96;100.00
12203;BME280;6164;42.178;24.622;2023-02-10T06:14:21;101776.41;;;-6.94;100.00
12203;BME280;6164;42.178;24.622;2023-02-10T06:16:48;101784.97;;;-6.97;100.00
12203;BME280;6164;42.178;24.622;2023-02-10T06:19:14;101781.56;;;-6.99;100.00
12203;BME280;6164;42.178;24.622;2023-02-10T06:21:41;101789.22;;;-6.87;100.00
12203;BME280;6164;42.178;24.622;2023-02-10T06:24:07;101787.50;;;-6.83;100.00
12203;BME280;6164;42.178;24.622;2023-02-10T06:26:35;101796.06;;;-6.84;100.00
12203;BME280;6164;42.178;24.622;2023-02-10T06:29:02;101783.16;;;-6.67;100.00
12203;BME280;6164;42.178;24.622;2023-02-10T06:31:30;101791.63;;;-6.56;100.00
12203;BME280;6164;42.178;24.622;2023-02-10T06:33:56;101789.00;;;-6.49;100.00
12203;BME280;6164;42.178;24.622;2023-02-10T06:36:23;101788.19;;;-6.49;100.00
12203;BME280;6164;42.178;24.622;2023-02-10T06:38:49;101791.53;;;-6.37;100.00
12203;BME280;6164;42.178;24.622;2023-02-10T06:41:16;101796.63;;;-6.32;100.00
12203;BME280;6164;42.178;24.622;2023-02-10T06:43:42;101791.47;;;-6.26;100.00
12203;BME280;6164;42.178;24.622;2023-02-10T06:46:09;101799.06;;;-6.11;100.00
12203;BME280;6164;42.178;24.622;2023-02-10T06:48:37;101797.22;;;-5.94;100.00
12203;BME280;6164;42.178;24.622;2023-02-10T06:51:03;101796.22;;;-5.78;100.00
12203;BME280;6164;42.178;24.622;2023-02-10T06:53:30;101797.00;;;-5.73;100.00
12203;BME280;6164;42.178;24.622;2023-02-10T06:55:56;101789.13;;;-5.54;100.00
12203;BME280;6164;42.178;24.622;2023-02-10T06:58:23;101787.19;;;-5.35;100.00
12203;BME280;6164;42.178;24.622;2023-02-10T07:00:49;101787.88;;;-5.18;100.00
12203;BME280;6164;42.178;24.622;2023-02-10T07:03:16;101802.41;;;-5.09;100.00
12203;BME280;6164;42.178;24.622;2023-02-10T07:05:44;101790.22;;;-4.97;100.00
12203;BME280;6164;42.178;24.622;2023-02-10T07:08:10;101798.59;;;-4.80;100.00
12203;BME280;6164;42.178;24.622;2023-02-10T07:10:36;101793.22;;;-4.62;100.00
12203;BME280;6164;42.178;24.622;2023-02-10T07:13:03;101798.19;;;-4.47;100.00
12203;BME280;6164;42.178;24.622;2023-02-10T07:15:29;101796.28;;;-4.36;100.00
12203;BME280;6164;42.178;24.622;2023-02-10T07:17:57;101796.94;;;-4.23;99.87
12203;BME280;6164;42.178;24.622;2023-02-10T07:20:23;101795.03;;;-4.09;99.14
12203;BME280;6164;42.178;24.622;2023-02-10T07:22:51;101801.88;;;-4.07;98.80
12203;BME280;6164;42.178;24.622;2023-02-10T07:25:18;101802.59;;;-3.97;98.52
12203;BME280;6164;42.178;24.622;2023-02-10T07:27:44;101808.28;;;-3.78;98.01
12203;BME280;6164;42.178;24.622;2023-02-10T07:30:11;101801.16;;;-3.61;96.86
12203;BME280;6164;42.178;24.622;2023-02-10T07:32:38;101805.34;;;-3.57;95.47
12203;BME280;6164;42.178;24.622;2023-02-10T07:35:07;101803.66;;;-3.58;93.70
12203;BME280;6164;42.178;24.622;2023-02-10T07:37:33;101802.69;;;-3.51;93.43
12203;BME280;6164;42.178;24.622;2023-02-10T07:40:01;101806.94;;;-3.49;92.76
12203;BME280;6164;42.178;24.622;2023-02-10T07:42:27;101800.84;;;-3.45;93.19
12203;BME280;6164;42.178;24.622;2023-02-10T07:44:54;101795.38;;;-3.28;92.54
12203;BME280;6164;42.178;24.622;2023-02-10T07:47:20;101804.88;;;-3.30;90.08
12203;BME280;6164;42.178;24.622;2023-02-10T07:49:47;101800.59;;;-3.30;89.61
12203;BME280;6164;42.178;24.622;2023-02-10T07:52:13;101793.75;;;-3.34;89.84
12203;BME280;6164;42.178;24.622;2023-02-10T07:54:40;101796.19;;;-3.25;89.54
12203;BME280;6164;42.178;24.622;2023-02-10T07:57:08;101796.97;;;-3.23;90.26
12203;BME280;6164;42.178;24.622;2023-02-10T07:59:34;101783.16;;;-3.19;90.50
12203;BME280;6164;42.178;24.622;2023-02-10T08:02:00;101782.09;;;-3.09;90.37
12203;BME280;6164;42.178;24.622;2023-02-10T08:04:29;101784.25;;;-2.88;89.72
12203;BME280;6164;42.178;24.622;2023-02-10T08:06:56;101787.53;;;-2.80;89.43
12203;BME280;6164;42.178;24.622;2023-02-10T08:09:22;101789.78;;;-2.64;88.70
12203;BME280;6164;42.178;24.622;2023-02-10T08:11:49;101792.13;;;-2.52;88.42
12203;BME280;6164;42.178;24.622;2023-02-10T08:14:16;101789.38;;;-2.45;86.19
12203;BME280;6164;42.178;24.622;2023-02-10T08:16:43;101795.06;;;-2.29;84.93
12203;BME280;6164;42.178;24.622;2023-02-10T08:19:09;101804.06;;;-2.09;83.43
12203;BME280;6164;42.178;24.622;2023-02-10T08:21:36;101803.94;;;-2.03;81.97
12203;BME280;6164;42.178;24.622;2023-02-10T08:24:02;101801.84;;;-1.89;81.24
12203;BME280;6164;42.178;24.622;2023-02-10T08:26:29;101815.91;;;-1.64;79.77
12203;BME280;6164;42.178;24.622;2023-02-10T08:28:55;101822.47;;;-1.49;78.14
12203;BME280;6164;42.178;24.622;2023-02-10T08:31:26;101846.53;;;-1.46;76.61
12203;BME280;6164;42.178;24.622;2023-02-10T08:33:53;101847.94;;;-1.33;75.91
12203;BME280;6164;42.178;24.622;2023-02-10T08:36:20;101854.63;;;-1.24;74.77
12203;BME280;6164;42.178;24.622;2023-02-10T08:38:47;101874.50;;;-0.91;74.05
12203;BME280;6164;42.178;24.622;2023-02-10T08:41:14;101883.03;;;-0.87;72.00
12203;BME280;6164;42.178;24.622;2023-02-10T08:43:42;101898.25;;;-0.75;71.04
12203;BME280;6164;42.178;24.622;2023-02-10T08:46:08;101901.53;;;-0.69;70.91
12203;BME280;6164;42.178;24.622;2023-02-10T08:48:36;101913.00;;;-0.77;69.63
12203;BME280;6164;42.178;24.622;2023-02-10T08:51:04;101907.94;;;-0.50;70.11
12203;BME280;6164;42.178;24.622;2023-02-10T08:53:31;101907.09;;;-0.21;69.16
12203;BME280;6164;42.178;24.622;2023-02-10T08:55:58;101923.13;;;-0.07;67.90
12203;BME280;6164;42.178;24.622;2023-02-10T08:58:25;101943.56;;;0.03;66.51
12203;BME280;6164;42.178;24.622;2023-02-10T09:00:52;101969.34;;;0.11;65.44
12203;BME280;6164;42.178;24.622;2023-02-10T09:03:18;101974.41;;;0.16;64.83
12203;BME280;6164;42.178;24.622;2023-02-10T09:05:46;101972.00;;;0.37;64.76
12203;BME280;6164;42.178;24.622;2023-02-10T09:08:13;101979.03;;;0.61;64.19
12203;BME280;6164;42.178;24.622;2023-02-10T09:10:40;101996.81;;;0.75;63.39
12203;BME280;6164;42.178;24.622;2023-02-10T09:13:06;102012.09;;;0.85;61.96
12203;BME280;6164;42.178;24.622;2023-02-10T09:15:36;102027.38;;;0.94;61.46
12203;BME280;6164;42.178;24.622;2023-02-10T09:18:03;102044.88;;;0.89;60.16
12203;BME280;6164;42.178;24.622;2023-02-10T09:20:29;102060.03;;;0.77;59.93
12203;BME280;6164;42.178;24.622;2023-02-10T09:22:57;102059.63;;;0.90;59.92
12203;BME280;6164;42.178;24.622;2023-02-10T09:25:24;102051.47;;;1.01;59.92
12203;BME280;6164;42.178;24.622;2023-02-10T09:27:50;102039.47;;;1.23;60.04
12203;BME280;6164;42.178;24.622;2023-02-10T09:30:18;102049.28;;;1.41;59.64
12203;BME280;6164;42.178;24.622;2023-02-10T09:32:44;102074.44;;;1.41;58.31
12203;BME280;6164;42.178;24.622;2023-02-10T09:35:11;102073.91;;;1.31;57.95
12203;BME280;6164;42.178;24.622;2023-02-10T09:37:37;102080.09;;;1.27;57.29
12203;BME280;6164;42.178;24.622;2023-02-10T09:40:06;102077.03;;;1.14;57.76
12203;BME280;6164;42.178;24.622;2023-02-10T09:42:36;102076.84;;;1.20;57.82
12203;BME280;6164;42.178;24.622;2023-02-10T09:45:09;102070.59;;;1.52;57.16
12203;BME280;6164;42.178;24.622;2023-02-10T09:47:38;102084.06;;;1.65;56.96
12203;BME280;6164;42.178;24.622;2023-02-10T09:52:58;102103.56;;;1.78;56.40
12203;BME280;6164;42.178;24.622;2023-02-10T09:55:29;102094.78;;;1.80;55.93
12203;BME280;6164;42.178;24.622;2023-02-10T09:57:57;102107.34;;;1.94;55.96
12203;BME280;6164;42.178;24.622;2023-02-10T10:00:26;102111.94;;;1.87;55.44
12203;BME280;6164;42.178;24.622;2023-02-10T10:02:54;102104.06;;;1.89;55.20
12203;BME280;6164;42.178;24.622;2023-02-10T10:05:23;102113.91;;;2.05;55.52
12203;BME280;6164;42.178;24.622;2023-02-10T10:07:51;102111.63;;;2.19;54.71
12203;BME280;6164;42.178;24.622;2023-02-10T10:10:20;102118.56;;;2.20;53.77
12203;BME280;6164;42.178;24.622;2023-02-10T10:12:49;102114.78;;;2.29;54.61
12203;BME280;6164;42.178;24.622;2023-02-10T10:15:16;102122.38;;;2.35;53.81
12203;BME280;6164;42.178;24.622;2023-02-10T10:17:50;102127.84;;;2.52;53.79
12203;BME280;6164;42.178;24.622;2023-02-10T10:20:25;102150.16;;;2.82;53.12
12203;BME280;6164;42.178;24.622;2023-02-10T10:22:56;102161.56;;;3.03;52.35
12203;BME280;6164;42.178;24.622;2023-02-10T10:25:32;102168.63;;;3.22;51.83
12203;BME280;6164;42.178;24.622;2023-02-10T10:28:08;102198.03;;;3.27;50.79
12203;BME280;6164;42.178;24.622;2023-02-10T10:30:45;102200.50;;;3.30;51.44
12203;BME280;6164;42.178;24.622;2023-02-10T10:33:14;102209.50;;;3.00;50.69
12203;BME280;6164;42.178;24.622;2023-02-10T10:35:45;102179.41;;;3.13;52.32
12203;BME280;6164;42.178;24.622;2023-02-10T10:38:12;102165.78;;;3.28;52.49
12203;BME280;6164;42.178;24.622;2023-02-10T10:40:39;102173.25;;;3.37;50.87
12203;BME280;6164;42.178;24.622;2023-02-10T10:43:09;102184.88;;;3.52;50.47
12203;BME280;6164;42.178;24.622;2023-02-10T10:45:39;102210.50;;;3.64;49.61
12203;BME280;6164;42.178;24.622;2023-02-10T10:48:08;102216.88;;;3.78;49.45
12203;BME280;6164;42.178;24.622;2023-02-10T10:50:35;102226.66;;;3.95;49.43
12203;BME280;6164;42.178;24.622;2023-02-10T10:53:03;102240.66;;;4.14;48.77
12203;BME280;6164;42.178;24.622;2023-02-10T10:55:32;102258.41;;;4.28;48.04
12203;BME280;6164;42.178;24.622;2023-02-10T10:58:01;102288.09;;;4.27;47.10
12203;BME280;6164;42.178;24.622;2023-02-10T11:00:30;102267.84;;;4.30;47.94
12203;BME280;6164;42.178;24.622;2023-02-10T11:02:58;102281.25;;;4.23;47.03
12203;BME280;6164;42.178;24.622;2023-02-10T11:05:26;102285.34;;;4.30;47.10
12203;BME280;6164;42.178;24.622;2023-02-10T11:07:53;102287.16;;;4.28;47.17
12203;BME280;6164;42.178;24.622;2023-02-10T11:10:23;102290.78;;;4.24;46.75
12203;BME280;6164;42.178;24.622;2023-02-10T11:12:50;102296.72;;;3.85;46.91
12203;BME280;6164;42.178;24.622;2023-02-10T11:18:06;102263.97;;;4.19;48.15
12203;BME280;6164;42.178;24.622;2023-02-10T11:20:34;102249.91;;;4.43;48.19
12203;BME280;6164;42.178;24.622;2023-02-10T11:23:02;102264.75;;;4.62;47.14
12203;BME280;6164;42.178;24.622;2023-02-10T11:25:30;102272.59;;;4.82;47.08
12203;BME280;6164;42.178;24.622;2023-02-10T11:27:57;102282.13;;;5.03;46.52
12203;BME280;6164;42.178;24.622;2023-02-10T11:30:25;102311.50;;;4.90;45.51
12203;BME280;6164;42.178;24.622;2023-02-10T11:32:51;102342.53;;;4.37;44.97
12203;BME280;6164;42.178;24.622;2023-02-10T11:35:22;102342.69;;;4.34;45.25
12203;BME280;6164;42.178;24.622;2023-02-10T11:37:51;102352.66;;;4.25;45.10
12203;BME280;6164;42.178;24.622;2023-02-10T11:40:20;102369.91;;;4.07;45.11
12203;BME280;6164;42.178;24.622;2023-02-10T11:42:47;102371.06;;;4.00;44.84
12203;BME280;6164;42.178;24.622;2023-02-10T11:45:15;102356.97;;;4.04;45.25
12203;BME280;6164;42.178;24.622;2023-02-10T11:47:42;102361.34;;;4.03;45.17
12203;BME280;6164;42.178;24.622;2023-02-10T11:50:18;102329.88;;;4.28;46.08
12203;BME280;6164;42.178;24.622;2023-02-10T11:52:46;102348.94;;;4.30;44.27
12203;BME280;6164;42.178;24.622;2023-02-10T11:55:13;102359.56;;;4.47;44.26
12203;BME280;6164;42.178;24.622;2023-02-10T11:57:43;102368.16;;;4.51;43.87
12203;BME280;6164;42.178;24.622;2023-02-10T12:00:32;102376.00;;;4.51;44.24
12203;BME280;6164;42.178;24.622;2023-02-10T12:03:12;102374.31;;;4.50;43.65
12203;BME280;6164;42.178;24.622;2023-02-10T12:05:49;102370.16;;;4.86;43.90
12203;BME280;6164;42.178;24.622;2023-02-10T12:08:22;102379.94;;;5.02;44.01
12203;BME280;6164;42.178;24.622;2023-02-10T12:10:51;102390.94;;;5.29;43.45
12203;BME280;6164;42.178;24.622;2023-02-10T12:13:26;102398.41;;;5.58;42.58
12203;BME280;6164;42.178;24.622;2023-02-10T12:16:03;102416.53;;;5.83;42.11
12203;BME280;6164;42.178;24.622;2023-02-10T12:18:38;102430.41;;;5.85;41.59
12203;BME280;6164;42.178;24.622;2023-02-10T12:21:11;102454.66;;;5.70;41.19
12203;BME280;6164;42.178;24.622;2023-02-10T12:23:48;102469.34;;;5.54;41.13
12203;BME280;6164;42.178;24.622;2023-02-10T12:26:18;102469.66;;;5.66;41.00
12203;BME280;6164;42.178;24.622;2023-02-10T12:28:47;102482.56;;;5.71;40.35
12203;BME280;6164;42.178;24.622;2023-02-10T12:31:20;102490.38;;;5.92;40.91
12203;BME280;6164;42.178;24.622;2023-02-10T12:33:56;102502.56;;;6.12;40.92
12203;BME280;6164;42.178;24.622;2023-02-10T12:36:26;102492.75;;;6.35;40.45
12203;BME280;6164;42.178;24.622;2023-02-10T12:38:58;102523.53;;;6.50;38.98
12203;BME280;6164;42.178;24.622;2023-02-10T12:41:32;102543.03;;;6.63;38.75
12203;BME280;6164;42.178;24.622;2023-02-10T12:44:08;102551.53;;;6.68;38.73
12203;BME280;6164;42.178;24.622;2023-02-10T12:46:40;102580.75;;;6.61;37.73
12203;BME280;6164;42.178;24.622;2023-02-10T12:49:17;102594.31;;;6.70;37.99
12203;BME280;6164;42.178;24.622;2023-02-10T12:51:54;102599.38;;;6.75;38.68
12203;BME280;6164;42.178;24.622;2023-02-10T12:54:26;102615.19;;;6.55;37.95
12203;BME280;6164;42.178;24.622;2023-02-10T12:56:59;102630.63;;;6.42;37.47
12203;BME280;6164;42.178;24.622;2023-02-10T12:59:29;102631.47;;;6.23;37.85
12203;BME280;6164;42.178;24.622;2023-02-10T13:02:02;102630.75;;;6.39;37.64
12203;BME280;6164;42.178;24.622;2023-02-10T13:04:29;102645.53;;;6.22;38.19